Time;durP1;ratioP1;P1;durP2;ratioP2;P2;SDS_P1;SDS_P2;PMS_P1;PMS_P2;Temp;Humidity;BMP_temperature;BMP_pressure;BME280_temperature;BME280_humidity;BME280_pressure;Samples;Min_cycle;Max_cycle;Signal;HPM_P1;HPM_P2
2022/05/15 00:00:38;;;;;;;2.55;2.08;;;;;;;21.78;49.67;99465.55;1786448;80;21008;-68
2022/05/15 00:03:08;;;;;;;2.52;2.22;;;;;;;21.77;49.66;99463.38;1786496;80;21528;-68
2022/05/15 00:05:35;;;;;;;2.92;2.00;;;;;;;21.75;49.66;99464.67;1763821;80;21005;-67
2022/05/15 00:08:04;;;;;;;2.20;2.00;;;;;;;21.73;49.68;99465.45;1755346;81;21134;-67
2022/05/15 00:10:32;;;;;;;2.52;2.20;;;;;;;21.73;49.69;99460.05;1755339;81;20995;-67
2022/05/15 00:12:59;;;;;;;2.52;2.22;;;;;;;21.71;49.70;99463.03;1757232;80;21562;-67
2022/05/15 00:15:26;;;;;;;2.33;2.12;;;;;;;21.69;49.70;99459.76;1786384;80;20999;-67
2022/05/15 00:17:53;;;;;;;2.47;2.27;;;;;;;21.69;49.70;99462.46;1784768;79;21481;-68
2022/05/15 00:20:20;;;;;;;2.70;2.42;;;;;;;21.67;49.72;99460.54;1780897;80;21133;-67
2022/05/15 00:22:48;;;;;;;2.37;2.17;;;;;;;21.66;49.72;99458.89;1756145;80;21495;-68
2022/05/15 00:25:14;;;;;;;2.22;1.77;;;;;;;21.67;49.72;99461.05;1750062;81;21033;-67
2022/05/15 00:27:41;;;;;;;2.20;2.00;;;;;;;21.66;49.71;99464.84;1749973;81;21046;-68
2022/05/15 00:30:09;;;;;;;2.67;2.00;;;;;;;21.64;49.70;99467.78;1750028;81;21050;-67
2022/05/15 00:32:36;;;;;;;1.87;1.77;;;;;;;21.63;49.70;99460.72;1750041;81;21052;-67
2022/05/15 00:35:03;;;;;;;1.87;1.77;;;;;;;21.62;49.70;99461.80;1749805;82;21042;-67
2022/05/15 00:37:30;;;;;;;2.27;2.02;;;;;;;21.60;49.72;99460.70;1749898;82;21495;-68
2022/05/15 00:39:57;;;;;;;2.25;2.02;;;;;;;21.60;49.71;99466.10;1750978;80;21021;-68
2022/05/15 00:42:24;;;;;;;2.47;2.27;;;;;;;21.59;49.72;99463.12;1750053;82;21081;-68
2022/05/15 00:44:50;;;;;;;1.77;1.67;;;;;;;21.59;49.75;99462.29;1749937;82;22136;-68
2022/05/15 00:47:17;;;;;;;2.33;1.92;;;;;;;21.57;49.73;99465.23;1750093;82;21078;-68
2022/05/15 00:49:44;;;;;;;2.05;1.85;;;;;;;21.57;49.74;99461.72;1749994;81;21026;-68
2022/05/15 00:52:13;;;;;;;2.58;2.20;;;;;;;21.56;49.72;99460.09;1749977;81;21533;-67
2022/05/15 00:55:09;;;;;;;1.95;1.82;;;;;;;21.55;49.73;99453.85;1750004;82;21815;-67
2022/05/15 00:57:47;;;;;;;2.58;1.87;;;;;;;21.53;49.74;99451.13;1739594;82;21207;-67
2022/05/15 01:00:24;;;;;;;2.08;1.80;;;;;;;21.51;49.74;99447.84;1750155;82;21003;-67
2022/05/15 01:03:07;;;;;;;2.50;1.98;;;;;;;21.50;49.76;99452.95;1749703;81;21050;-67
2022/05/15 01:05:36;;;;;;;2.22;2.02;;;;;;;21.48;49.75;99454.58;1750002;81;21058;-68
2022/05/15 01:08:03;;;;;;;2.40;2.02;;;;;;;21.46;49.79;99451.81;1749946;82;21550;-68
2022/05/15 01:10:29;;;;;;;1.75;1.65;;;;;;;21.45;49.80;99448.30;1750050;82;21131;-67
2022/05/15 01:12:58;;;;;;;1.85;1.72;;;;;;;21.44;49.79;99452.09;1751890;80;21493;-67
2022/05/15 01:15:27;;;;;;;1.80;1.70;;;;;;;21.43;49.80;99461.21;1780845;80;21029;-69
2022/05/15 01:17:57;;;;;;;1.98;1.82;;;;;;;21.43;49.80;99461.75;1780696;80;21555;-67
2022/05/15 01:20:28;;;;;;;2.33;2.12;;;;;;;21.36;49.79;99450.58;1781061;80;21537;-67
2022/05/15 01:22:55;;;;;;;1.80;1.70;;;;;;;21.39;49.80;99456.83;1781013;80;21542;-68
2022/05/15 01:25:29;;;;;;;2.25;1.92;;;;;;;21.38;49.82;99450.31;1780790;80;21102;-69
2022/05/15 01:28:12;;;;;;;2.50;2.30;;;;;;;21.37;49.82;99450.85;1780844;80;21416;-68
2022/05/15 01:30:41;;;;;;;1.95;1.67;;;;;;;21.37;49.83;99438.69;1780235;80;21024;-68
2022/05/15 01:33:08;;;;;;;2.02;1.80;;;;;;;21.35;49.81;99434.07;1780827;80;21006;-68
2022/05/15 01:35:36;;;;;;;1.85;1.65;;;;;;;21.35;49.84;99433.26;1780872;80;21123;-68
2022/05/15 01:38:04;;;;;;;2.12;2.00;;;;;;;21.33;49.83;99429.98;1780739;80;21061;-67
2022/05/15 01:40:31;;;;;;;2.35;1.90;;;;;;;21.33;49.82;99434.85;1780962;80;21491;-67
2022/05/15 01:42:59;;;;;;;2.10;1.90;;;;;;;21.32;49.85;99433.20;1780793;80;20983;-68
2022/05/15 01:45:26;;;;;;;1.65;1.52;;;;;;;21.31;49.83;99436.98;1780851;80;20987;-67
2022/05/15 01:47:53;;;;;;;2.83;2.20;;;;;;;21.30;49.84;99432.62;1779844;80;21118;-67
2022/05/15 01:50:21;;;;;;;3.10;2.10;;;;;;;21.29;49.83;99428.31;1780907;80;21558;-67
2022/05/15 01:52:47;;;;;;;2.12;1.90;;;;;;;21.29;49.83;99428.84;1780920;80;21427;-67
2022/05/15 01:55:14;;;;;;;2.37;1.70;;;;;;;21.29;49.84;99421.55;1780773;80;21050;-67
2022/05/15 01:57:42;;;;;;;1.95;1.60;;;;;;;21.28;49.87;99419.09;1780869;80;21065;-68
2022/05/15 02:00:15;;;;;;;2.10;1.90;;;;;;;21.27;49.85;99416.93;1780810;79;20971;-67
2022/05/15 02:02:42;;;;;;;1.98;1.85;;;;;;;21.26;49.83;99415.81;1780792;80;20967;-67
2022/05/15 02:05:09;;;;;;;1.87;1.50;;;;;;;21.25;49.84;99424.47;1779704;80;21537;-67
2022/05/15 02:07:36;;;;;;;2.20;1.62;;;;;;;21.24;49.85;99430.91;1780801;80;21002;-67
2022/05/15 02:10:04;;;;;;;2.17;1.98;;;;;;;21.23;49.84;99426.59;1780884;80;21014;-68
2022/05/15 02:12:31;;;;;;;2.85;1.95;;;;;;;21.23;49.85;99427.95;1780782;80;21110;-67
2022/05/15 02:14:58;;;;;;;1.70;1.60;;;;;;;21.21;49.85;99417.38;1780700;79;21010;-68
2022/05/15 02:17:25;;;;;;;2.25;2.05;;;;;;;21.21;49.85;99421.43;1743463;82;21179;-67
2022/05/15 02:19:52;;;;;;;1.85;1.75;;;;;;;21.21;49.85;99419.27;1743789;82;21058;-67
2022/05/15 02:22:19;;;;;;;2.05;1.87;;;;;;;21.20;49.88;99406.81;1732485;82;21011;-67
2022/05/15 02:24:46;;;;;;;2.12;2.02;;;;;;;21.20;49.86;99413.56;1732745;82;21208;-67
2022/05/15 02:27:13;;;;;;;2.35;1.75;;;;;;;21.19;49.88;99403.84;1732580;82;21605;-67
2022/05/15 02:29:40;;;;;;;2.17;1.60;;;;;;;21.18;49.84;99400.84;1732690;82;21007;-67
2022/05/15 02:32:07;;;;;;;2.22;1.60;;;;;;;21.17;49.87;99405.94;1732998;82;21042;-67
2022/05/15 02:34:34;;;;;;;2.12;1.80;;;;;;;21.16;49.85;99398.38;1732906;82;21055;-68
2022/05/15 02:37:01;;;;;;;2.70;1.75;;;;;;;21.15;49.85;99406.22;1731587;82;21254;-66
2022/05/15 02:39:28;;;;;;;1.75;1.65;;;;;;;21.15;49.90;99408.08;1732656;82;20998;-67
2022/05/15 02:41:54;;;;;;;1.90;1.70;;;;;;;21.15;49.89;99414.83;1732693;82;21090;-68
2022/05/15 02:44:21;;;;;;;1.70;1.60;;;;;;;21.12;49.89;99417.50;1732709;82;21085;-68
2022/05/15 02:46:49;;;;;;;2.17;2.00;;;;;;;21.13;49.88;99418.30;1732795;82;21018;-67
2022/05/15 02:52:03;;;;;;;1.80;1.62;;;;;;;21.11;49.89;99432.08;1728048;82;21061;-67
2022/05/15 02:54:29;;;;;;;2.20;1.85;;;;;;;21.11;49.89;99435.29;1722171;82;21132;-67
2022/05/15 02:56:57;;;;;;;1.72;1.60;;;;;;;21.10;49.94;99440.42;1683146;84;21063;-67
2022/05/15 02:59:24;;;;;;;2.10;1.98;;;;;;;21.09;49.95;99441.47;1703431;84;21063;-67
2022/05/15 03:01:51;;;;;;;2.00;1.90;;;;;;;21.07;49.92;99436.84;1703384;84;21364;-68
2022/05/15 03:04:17;;;;;;;1.70;1.60;;;;;;;21.07;49.94;99440.89;1703664;84;21023;-67
2022/05/15 03:06:44;;;;;;;1.98;1.75;;;;;;;21.06;49.96;99444.67;1703423;84;21011;-68
2022/05/15 03:09:11;;;;;;;1.87;1.77;;;;;;;21.05;49.95;99443.02;1703329;84;21054;-69
2022/05/15 03:11:39;;;;;;;1.67;1.57;;;;;;;21.04;49.98;99436.81;1704494;82;21043;-68
2022/05/15 03:14:07;;;;;;;2.10;1.90;;;;;;;21.05;49.97;99437.63;1731003;82;21106;-68
2022/05/15 03:16:35;;;;;;;3.60;1.80;;;;;;;21.04;49.97;99436.00;1732578;82;21027;-68
2022/05/15 03:19:02;;;;;;;1.70;1.60;;;;;;;21.03;49.98;99446.50;1732520;82;21004;-69
2022/05/15 03:21:28;;;;;;;2.65;2.35;;;;;;;21.03;49.99;99451.36;1732728;82;21546;-67
2022/05/15 03:24:06;;;;;;;2.10;2.00;;;;;;;21.03;50.00;99455.95;1732633;82;21019;-68
2022/05/15 03:26:39;;;;;;;2.37;1.72;;;;;;;21.01;49.99;99457.03;1732727;82;21081;-67
2022/05/15 03:29:06;;;;;;;1.72;1.62;;;;;;;21.01;50.01;99457.03;1731977;82;21566;-67
2022/05/15 03:31:37;;;;;;;1.90;1.80;;;;;;;21.00;50.02;99449.17;1732653;82;20999;-67
2022/05/15 03:34:04;;;;;;;1.70;1.60;;;;;;;21.00;50.06;99453.22;1732839;82;21495;-67
2022/05/15 03:36:32;;;;;;;2.05;1.85;;;;;;;20.99;50.06;99456.42;1732683;82;21030;-67
2022/05/15 03:38:58;;;;;;;2.00;1.80;;;;;;;20.98;50.06;99448.05;1712152;82;21150;-67
2022/05/15 03:41:25;;;;;;;1.77;1.65;;;;;;;20.98;50.07;99450.75;1732775;82;21102;-67
2022/05/15 03:43:52;;;;;;;1.95;1.50;;;;;;;20.98;50.09;99445.89;1732958;82;21026;-66
2022/05/15 03:46:18;;;;;;;1.70;1.60;;;;;;;20.99;50.09;99451.56;1731857;82;21018;-68
2022/05/15 03:48:45;;;;;;;1.70;1.60;;;;;;;20.97;50.09;99442.35;1732884;82;21086;-67
2022/05/15 03:51:12;;;;;;;1.90;1.70;;;;;;;20.97;50.09;99445.05;1732895;82;21965;-68
2022/05/15 03:53:39;;;;;;;1.85;1.70;;;;;;;20.97;50.13;99445.59;1732783;82;21038;-67
2022/05/15 03:56:06;;;;;;;1.60;1.50;;;;;;;20.96;50.10;99448.83;1732741;82;21031;-67
2022/05/15 03:58:35;;;;;;;2.25;1.60;;;;;;;20.96;50.14;99450.72;1732836;82;21002;-67
2022/05/15 04:01:03;;;;;;;1.42;1.32;;;;;;;20.96;50.15;99453.42;1732751;82;21101;-67
2022/05/15 04:03:31;;;;;;;2.37;2.17;;;;;;;20.95;50.16;99449.88;1713837;82;21805;-67
2022/05/15 04:05:57;;;;;;;2.02;1.70;;;;;;;20.95;50.15;99456.62;1703505;84;21050;-68
2022/05/15 04:08:27;;;;;;;2.20;1.90;;;;;;;20.95;50.15;99457.98;1703509;84;21079;-67
2022/05/15 04:10:55;;;;;;;1.60;1.40;;;;;;;20.94;50.16;99456.36;1704427;82;21027;-68
2022/05/15 04:13:23;;;;;;;1.60;1.50;;;;;;;20.95;50.17;99455.28;1733222;82;21054;-68
2022/05/15 04:15:50;;;;;;;2.00;1.80;;;;;;;20.94;50.16;99455.55;1732858;82;21159;-67
2022/05/15 04:18:16;;;;;;;1.82;1.67;;;;;;;20.94;50.18;99453.66;1732659;82;21026;-67
2022/05/15 04:20:43;;;;;;;1.70;1.60;;;;;;;20.95;50.21;99466.63;1747184;82;21021;-67
2022/05/15 04:23:10;;;;;;;1.90;1.67;;;;;;;20.94;50.20;99464.45;1789466;80;20982;-67
2022/05/15 04:25:38;;;;;;;2.33;2.05;;;;;;;20.93;50.18;99465.51;1789540;80;21041;-68
2022/05/15 04:28:04;;;;;;;2.12;1.80;;;;;;;20.94;50.21;99462.30;1789379;80;21173;-67
2022/05/15 04:30:32;;;;;;;1.65;1.55;;;;;;;20.95;50.20;99470.13;1789325;80;20991;-70
2022/05/15 04:32:58;;;;;;;2.08;1.70;;;;;;;20.94;50.20;99465.81;1789399;80;21029;-68
2022/05/15 04:35:25;;;;;;;1.85;1.75;;;;;;;20.93;50.19;99461.45;1789516;80;21076;-69
2022/05/15 04:37:51;;;;;;;1.90;1.70;;;;;;;20.94;50.18;99457.70;1788417;80;21017;-68
2022/05/15 04:40:19;;;;;;;1.77;1.60;;;;;;;20.94;50.20;99456.36;1789419;80;21133;-67
2022/05/15 04:42:45;;;;;;;1.70;1.42;;;;;;;20.94;50.21;99459.05;1789763;80;21478;-68
2022/05/15 04:45:12;;;;;;;1.80;1.70;;;;;;;20.94;50.21;99452.84;1789499;80;20998;-67
2022/05/15 04:47:38;;;;;;;2.10;1.95;;;;;;;20.94;50.20;99464.45;1789426;80;21001;-68
2022/05/15 04:50:06;;;;;;;2.10;1.90;;;;;;;20.95;50.20;99471.48;1789509;80;21022;-68
2022/05/15 04:52:33;;;;;;;2.10;1.90;;;;;;;20.95;50.18;99461.22;1789471;80;21117;-67
2022/05/15 04:55:00;;;;;;;1.67;1.57;;;;;;;20.95;50.17;99468.78;1788475;80;20990;-67
2022/05/15 04:57:26;;;;;;;1.70;1.60;;;;;;;20.96;50.19;99475.83;1789500;80;21488;-67
2022/05/15 04:59:53;;;;;;;2.12;1.70;;;;;;;20.97;50.21;99480.16;1789395;80;21050;-68
2022/05/15 05:02:19;;;;;;;1.65;1.55;;;;;;;20.97;50.20;99477.99;1789532;80;21006;-68
2022/05/15 05:04:46;;;;;;;2.12;1.90;;;;;;;20.98;50.19;99482.34;1789432;80;21134;-68
2022/05/15 05:07:12;;;;;;;2.33;2.10;;;;;;;20.99;50.20;99482.63;1789401;80;21093;-69
2022/05/15 05:09:40;;;;;;;2.15;1.90;;;;;;;20.99;50.20;99480.73;1789427;80;21003;-68
2022/05/15 05:12:08;;;;;;;2.37;2.17;;;;;;;21.00;50.18;99480.22;1788286;80;21073;-68
2022/05/15 05:14:35;;;;;;;2.40;2.05;;;;;;;21.01;50.21;99482.69;1789423;80;21022;-68
2022/05/15 05:17:01;;;;;;;2.02;1.82;;;;;;;21.03;50.23;99482.95;1789482;80;22541;-67
2022/05/15 05:19:28;;;;;;;2.40;2.20;;;;;;;21.01;50.21;99479.98;1789997;80;21002;-67
2022/05/15 05:21:55;;;;;;;1.82;1.72;;;;;;;21.03;50.23;99475.67;1791940;80;21026;-69
2022/05/15 05:24:22;;;;;;;2.05;1.77;;;;;;;21.04;50.24;99473.81;1791879;80;21026;-67
2022/05/15 05:26:49;;;;;;;2.20;1.95;;;;;;;21.04;50.24;99478.67;1792007;80;21494;-68
2022/05/15 05:29:15;;;;;;;1.72;1.62;;;;;;;21.06;50.27;99468.98;1791840;80;21133;-68
2022/05/15 05:31:41;;;;;;;2.08;1.92;;;;;;;21.06;50.26;99471.14;1791978;80;21010;-68
2022/05/15 05:34:08;;;;;;;2.25;2.05;;;;;;;21.07;50.26;99467.91;1791779;80;21482;-68
2022/05/15 05:36:35;;;;;;;2.15;1.95;;;;;;;21.10;50.26;99472.83;1791802;80;21549;-68
2022/05/15 05:39:01;;;;;;;2.80;2.30;;;;;;;21.10;50.25;99468.78;1791795;80;21026;-67
2022/05/15 05:41:28;;;;;;;2.27;2.08;;;;;;;21.11;50.25;99479.85;1791899;80;21272;-67
2022/05/15 05:43:55;;;;;;;2.37;2.17;;;;;;;21.13;50.26;99476.38;1791017;80;21014;-67
2022/05/15 05:46:21;;;;;;;2.62;2.42;;;;;;;21.13;50.26;99482.62;1791902;80;21550;-68
2022/05/15 05:48:49;;;;;;;2.33;2.12;;;;;;;21.15;50.25;99479.65;1791894;80;21068;-67
2022/05/15 05:51:15;;;;;;;2.83;2.33;;;;;;;21.16;50.25;99481.30;1791924;80;21482;-67
2022/05/15 05:53:42;;;;;;;2.55;2.35;;;;;;;21.17;50.23;99485.63;1791900;80;21128;-67
2022/05/15 05:56:09;;;;;;;2.50;2.30;;;;;;;21.18;50.23;99485.92;1791885;79;20990;-68
2022/05/15 05:58:37;;;;;;;3.08;2.77;;;;;;;21.19;50.25;99491.09;1754351;81;21001;-68
2022/05/15 06:01:03;;;;;;;2.27;2.08;;;;;;;21.19;50.24;99487.04;1752325;81;21025;-68
2022/05/15 06:06:16;;;;;;;2.47;2.27;;;;;;;21.23;50.23;99495.98;1708638;84;21346;-68
2022/05/15 06:08:42;;;;;;;2.47;2.27;;;;;;;21.22;50.23;99495.17;1708522;84;21014;-67
2022/05/15 06:11:10;;;;;;;3.08;2.25;;;;;;;21.22;50.23;99495.17;1716319;83;21053;-68
2022/05/15 06:13:38;;;;;;;2.12;2.00;;;;;;;21.23;50.21;99500.04;1716326;83;21070;-68
2022/05/15 06:16:06;;;;;;;2.77;2.45;;;;;;;21.23;50.22;99500.88;1716308;82;21013;-68
2022/05/15 06:18:33;;;;;;;2.35;2.15;;;;;;;21.24;50.19;99498.98;1717375;82;21158;-69
2022/05/15 06:21:00;;;;;;;3.75;2.33;;;;;;;21.23;50.20;99495.48;1706063;83;21066;-67
2022/05/15 06:23:27;;;;;;;2.42;2.22;;;;;;;21.24;50.17;99494.94;1703500;84;21045;-67
2022/05/15 06:25:54;;;;;;;2.40;2.20;;;;;;;21.24;50.18;99495.75;1703309;84;21011;-67
2022/05/15 06:28:20;;;;;;;3.70;2.17;;;;;;;21.24;50.18;99493.59;1703526;84;21035;-70
2022/05/15 06:30:46;;;;;;;3.17;2.47;;;;;;;21.25;50.18;99497.91;1703445;84;21975;-67
2022/05/15 06:33:13;;;;;;;2.55;2.10;;;;;;;21.25;50.17;99499.26;1703261;84;21065;-68
2022/05/15 06:35:40;;;;;;;2.75;2.55;;;;;;;21.26;50.18;99499.56;1704370;82;21010;-68
2022/05/15 06:38:08;;;;;;;2.50;2.30;;;;;;;21.26;50.17;99503.08;1703320;84;21050;-68
2022/05/15 06:40:35;;;;;;;2.70;2.50;;;;;;;21.26;50.15;99500.38;1703397;84;21077;-67
2022/05/15 06:43:01;;;;;;;2.75;2.55;;;;;;;21.26;50.14;99501.72;1703381;84;21146;-68
2022/05/15 06:45:28;;;;;;;2.47;2.27;;;;;;;21.26;50.14;99500.38;1703540;84;21507;-68
2022/05/15 06:47:54;;;;;;;2.62;2.35;;;;;;;21.27;50.11;99495.27;1703314;84;21098;-67
2022/05/15 06:50:21;;;;;;;2.75;2.30;;;;;;;21.28;50.13;99488.79;1706213;82;21025;-68
2022/05/15 06:52:49;;;;;;;2.80;2.00;;;;;;;21.28;50.14;99486.62;1721645;82;21074;-68
2022/05/15 06:55:19;;;;;;;2.50;2.30;;;;;;;21.29;50.12;99482.34;1703548;84;21552;-68
2022/05/15 06:57:47;;;;;;;2.92;2.33;;;;;;;21.30;50.09;99479.91;1703338;84;21034;-67
2022/05/15 07:00:18;;;;;;;3.17;2.70;;;;;;;21.31;50.13;99488.31;1703381;84;21007;-67
2022/05/15 07:02:46;;;;;;;2.70;2.50;;;;;;;21.32;50.12;99477.78;1702645;84;21551;-67
2022/05/15 07:05:19;;;;;;;2.42;2.22;;;;;;;21.33;50.12;99477.27;1703366;84;21181;-67
2022/05/15 07:07:47;;;;;;;2.30;2.10;;;;;;;21.34;50.11;99473.48;1703628;84;21111;-68
2022/05/15 07:10:13;;;;;;;2.25;2.05;;;;;;;21.36;50.11;99474.06;1704253;82;21027;-68
2022/05/15 07:12:40;;;;;;;2.58;2.30;;;;;;;21.36;50.10;99473.55;1703367;84;21066;-68
2022/05/15 07:15:08;;;;;;;2.25;2.05;;;;;;;21.37;50.11;99471.11;1703326;84;21166;-67
2022/05/15 07:17:35;;;;;;;2.52;2.33;;;;;;;21.39;50.09;99470.34;1703412;83;20987;-68
2022/05/15 07:20:03;;;;;;;2.50;2.30;;;;;;;21.41;50.09;99466.85;1707665;83;21228;-68
2022/05/15 07:22:30;;;;;;;2.60;2.40;;;;;;;21.44;50.13;99472.86;1757834;81;21037;-68
2022/05/15 07:24:57;;;;;;;2.60;2.40;;;;;;;21.46;50.12;99476.13;1757801;80;21021;-68
2022/05/15 07:27:23;;;;;;;2.37;2.00;;;;;;;21.47;50.17;99470.48;1758962;80;21083;-68
2022/05/15 07:29:50;;;;;;;2.52;2.33;;;;;;;21.50;50.25;99468.66;1757915;81;21033;-68
2022/05/15 07:32:17;;;;;;;2.47;2.25;;;;;;;21.52;50.29;99458.96;1757766;80;21130;-69
2022/05/15 07:35:24;;;;;;;2.52;2.33;;;;;;;21.59;50.45;99445.56;1889404;76;22871;-68
2022/05/15 07:37:51;;;;;;;2.35;2.15;;;;;;;21.59;50.58;99453.67;1860295;77;20968;-68
2022/05/15 07:40:18;;;;;;;2.95;2.65;;;;;;;21.63;50.70;99461.27;1860430;77;21079;-68
2022/05/15 07:42:44;;;;;;;2.50;2.30;;;;;;;21.65;50.93;99451.02;1860315;77;21576;-68
2022/05/15 07:45:12;;;;;;;2.75;2.22;;;;;;;21.66;51.15;99447.27;1853569;76;21493;-68
2022/05/15 07:47:38;;;;;;;2.60;2.40;;;;;;;21.68;51.36;99448.64;1852446;77;20981;-68
2022/05/15 07:50:06;;;;;;;2.40;2.20;;;;;;;21.70;51.52;99447.86;1852158;77;20957;-68
2022/05/15 07:52:33;;;;;;;1.95;1.80;;;;;;;21.73;51.51;99447.38;1826520;78;21128;-68
2022/05/15 07:54:59;;;;;;;2.60;2.40;;;;;;;21.75;51.53;99453.35;1826304;78;20941;-68
2022/05/15 07:57:25;;;;;;;2.62;2.00;;;;;;;21.77;51.54;99453.92;1827008;78;20986;-68
2022/05/15 07:59:52;;;;;;;2.42;2.20;;;;;;;21.78;51.50;99452.84;1827548;76;21006;-67
2022/05/15 08:02:19;;;;;;;2.83;2.20;;;;;;;21.80;51.41;99449.34;1860446;76;21571;-68
2022/05/15 08:10:17;;;;;;;1.90;1.80;;;;;;;21.86;51.19;99446.19;1809504;77;21060;-69
2022/05/15 08:12:44;;;;;;;2.15;1.98;;;;;;;21.88;51.05;99433.77;1860252;77;21012;-68
2022/05/15 08:15:11;;;;;;;1.90;1.80;;;;;;;21.89;50.98;99443.00;1860205;77;21552;-68
2022/05/15 08:17:38;;;;;;;2.10;1.95;;;;;;;21.90;51.06;99433.80;1859530;76;21195;-68
2022/05/15 08:25:42;;;;;;;2.20;2.00;;;;;;;21.94;51.02;99439.53;1860168;77;20990;-68
2022/05/15 08:28:08;;;;;;;2.87;2.35;;;;;;;21.94;51.03;99433.61;1860207;77;21071;-68
2022/05/15 08:30:35;;;;;;;2.05;1.87;;;;;;;21.97;51.04;99428.22;1860296;77;21133;-68
2022/05/15 08:33:02;;;;;;;2.30;2.10;;;;;;;21.97;51.02;99425.52;1860002;76;21033;-68
2022/05/15 08:35:29;;;;;;;3.77;2.70;;;;;;;22.00;50.92;99419.63;1848725;76;20997;-68
2022/05/15 08:37:57;;;;;;;2.58;2.37;;;;;;;22.02;50.85;99426.11;1848438;77;21591;-68
2022/05/15 08:40:31;;;;;;;2.00;1.90;;;;;;;22.03;50.85;99416.94;1848529;77;21149;-68
2022/05/15 08:42:59;;;;;;;2.70;2.47;;;;;;;22.04;50.91;99419.40;1848648;77;21764;-67
2022/05/15 08:45:30;;;;;;;2.47;2.27;;;;;;;22.05;51.01;99406.14;1848313;77;21033;-68
2022/05/15 08:48:06;;;;;;;2.67;2.47;;;;;;;22.06;50.90;99424.02;1848195;77;21284;-67
2022/05/15 08:50:36;;;;;;;2.60;2.40;;;;;;;22.08;50.89;99416.47;1847897;77;21019;-68
2022/05/15 08:53:06;;;;;;;2.72;2.52;;;;;;;22.09;50.90;99428.09;1810189;76;21016;-69
2022/05/15 08:55:42;;;;;;;2.60;2.40;;;;;;;22.09;50.88;99427.55;1803033;79;21829;-68
2022/05/15 08:58:35;;;;;;;2.98;2.50;;;;;;;22.10;50.86;99426.50;1802898;79;21060;-68
2022/05/15 09:01:01;;;;;;;2.67;2.47;;;;;;;22.12;50.88;99428.42;1803293;79;21489;-68
2022/05/15 09:03:30;;;;;;;2.20;2.00;;;;;;;22.13;50.89;99431.94;1715970;79;21041;-68
2022/05/15 09:06:10;;;;;;;2.02;1.92;;;;;;;22.13;50.94;99425.17;1802956;79;21021;-68
2022/05/15 09:09:06;;;;;;;2.52;2.33;;;;;;;22.12;50.88;99428.42;1824774;76;21129;-68
2022/05/15 09:11:38;;;;;;;2.77;2.55;;;;;;;22.13;50.86;99425.98;1874165;76;21088;-68
2022/05/15 09:14:32;;;;;;;2.40;2.20;;;;;;;22.14;50.89;99428.98;1797645;79;21018;-68
2022/05/15 09:17:13;;;;;;;2.83;2.50;;;;;;;22.16;50.89;99428.73;1797358;79;21074;-68
2022/05/15 09:19:39;;;;;;;2.92;2.60;;;;;;;22.18;50.89;99422.53;1797701;79;21534;-67
2022/05/15 09:22:05;;;;;;;2.37;2.17;;;;;;;22.21;50.84;99419.31;1798795;79;21180;-68
2022/05/15 09:24:39;;;;;;;3.02;2.83;;;;;;;22.23;50.76;99418.52;1874035;76;20991;-67
2022/05/15 09:27:25;;;;;;;2.77;2.30;;;;;;;22.27;50.62;99406.69;1872967;76;21430;-68
2022/05/15 09:29:58;;;;;;;2.40;2.20;;;;;;;22.29;50.55;99407.25;1796724;79;21150;-69
2022/05/15 09:32:28;;;;;;;;;;;;;;;22.30;50.61;99415.13;1801298;79;21119;-68
2022/05/15 09:34:58;;;;;;;2.87;2.60;;;;;;;22.32;50.66;99413.52;1798429;79;21126;-68
2022/05/15 09:40:17;;;;;;;2.50;2.30;;;;;;;22.34;50.57;99412.73;1798844;79;21569;-69
2022/05/15 09:45:54;;;;;;;2.98;2.47;;;;;;;22.39;50.41;99407.39;1798594;79;21074;-67
2022/05/15 09:48:26;;;;;;;2.80;2.47;;;;;;;22.43;50.48;99404.45;1797607;79;21065;-68
2022/05/15 09:51:02;;;;;;;2.60;2.40;;;;;;;22.46;50.45;99406.63;1791425;79;21499;-67
2022/05/15 09:53:36;;;;;;;2.83;2.62;;;;;;;22.49;50.33;99400.72;1777131;80;21026;-68
2022/05/15 09:56:11;;;;;;;2.62;2.42;;;;;;;22.52;50.30;99402.93;1768169;80;21058;-69
2022/05/15 09:58:49;;;;;;;2.50;2.30;;;;;;;22.57;50.37;99399.45;1774985;80;20987;-68
2022/05/15 10:01:50;;;;;;;2.62;2.42;;;;;;;22.60;50.32;99400.30;1796656;79;21090;-68
2022/05/15 10:04:28;;;;;;;2.58;2.37;;;;;;;22.64;50.28;99397.36;1798434;79;21074;-69
2022/05/15 10:06:59;;;;;;;2.62;2.42;;;;;;;22.67;50.28;99391.95;1874138;76;21053;-67
2022/05/15 10:09:34;;;;;;;2.67;2.42;;;;;;;22.69;50.30;99403.34;1874083;76;20981;-68
2022/05/15 10:12:24;;;;;;;2.35;2.15;;;;;;;22.70;50.37;99410.41;1874173;76;21021;-68
2022/05/15 10:14:59;;;;;;;2.92;2.72;;;;;;;22.72;50.43;99404.20;1864463;76;21152;-67
2022/05/15 10:17:26;;;;;;;2.02;1.90;;;;;;;22.74;50.46;99412.89;1802929;79;21042;-67
2022/05/15 10:20:04;;;;;;;2.27;2.10;;;;;;;22.76;50.44;99414.25;1805719;79;21069;-68
2022/05/15 10:22:39;;;;;;;2.50;2.30;;;;;;;22.77;50.24;99413.19;1805875;79;21084;-68
2022/05/15 10:25:19;;;;;;;2.33;2.12;;;;;;;22.80;50.20;99408.34;1882924;76;21005;-68
2022/05/15 10:28:09;;;;;;;3.23;2.17;;;;;;;22.83;50.24;99411.87;1797959;76;20955;-68
2022/05/15 10:30:41;;;;;;;2.37;2.17;;;;;;;22.84;50.31;99418.94;1882988;76;21042;-67
2022/05/15 10:33:17;;;;;;;2.50;2.30;;;;;;;22.85;50.42;99417.84;1874150;76;22293;-68
2022/05/15 10:36:04;;;;;;;1.92;1.80;;;;;;;22.86;50.32;99411.37;1806879;79;21494;-68
2022/05/15 10:38:42;;;;;;;2.27;2.02;;;;;;;22.88;50.25;99419.50;1804507;79;20997;-68
2022/05/15 10:41:26;;;;;;;2.45;2.25;;;;;;;22.93;50.10;99409.27;1804407;79;21240;-68
2022/05/15 10:44:17;;;;;;;2.50;2.30;;;;;;;22.97;50.08;99410.39;1784990;79;21525;-67
2022/05/15 10:46:50;;;;;;;1.67;1.57;;;;;;;23.02;50.02;99415.83;1804465;79;21573;-68
2022/05/15 10:49:54;;;;;;;2.40;2.20;;;;;;;23.06;49.91;99429.16;1804221;79;21116;-68
2022/05/15 10:52:44;;;;;;;2.72;2.52;;;;;;;23.09;49.87;99431.37;1817811;78;21031;-68
2022/05/15 10:58:46;;;;;;;2.17;2.00;;;;;;;23.14;49.85;99429.23;1820245;78;21022;-68
2022/05/15 11:01:27;;;;;;;2.20;2.00;;;;;;;23.17;49.78;99424.66;1820193;78;21071;-68
2022/05/15 11:04:08;;;;;;;2.42;2.22;;;;;;;23.22;49.82;99420.64;1816339;78;20997;-68
2022/05/15 11:06:43;;;;;;;2.25;2.05;;;;;;;23.29;49.86;99413.09;1820240;78;21024;-69
2022/05/15 11:09:48;;;;;;;2.52;2.20;;;;;;;;;;1841345;77;21526;-68
2022/05/15 11:12:27;;;;;;;;;;;;;;;23.44;49.87;99406.16;1845568;77;21541;-68
2022/05/15 11:15:22;;;;;;;2.40;2.00;;;;;;;23.50;49.80;99409.98;1842829;77;20155;-69
2022/05/15 11:18:38;;;;;;;2.02;1.90;;;;;;;23.53;49.71;99410.83;1842690;77;21030;-68
2022/05/15 11:21:48;;;;;;;2.42;2.22;;;;;;;23.55;49.68;99410.58;1842636;77;21077;-68
2022/05/15 11:24:53;;;;;;;2.25;1.90;;;;;;;23.59;49.62;99409.52;1841944;77;21097;-68
2022/05/15 11:27:48;;;;;;;2.10;1.82;;;;;;;23.63;49.63;99402.48;1842529;77;20979;-69
2022/05/15 11:30:27;;;;;;;2.12;2.02;;;;;;;23.66;49.58;99412.27;1768707;81;21506;-68
2022/05/15 11:33:03;;;;;;;2.40;2.20;;;;;;;23.67;49.55;99404.40;1784032;80;21006;-68
2022/05/15 11:35:37;;;;;;;2.20;1.92;;;;;;;23.69;49.54;99411.73;1797961;79;21529;-69
2022/05/15 11:38:27;;;;;;;2.52;2.33;;;;;;;23.73;49.52;99414.19;1812482;78;21761;-68
2022/05/15 11:40:54;;;;;;;2.17;1.98;;;;;;;23.78;49.50;99413.94;1811699;79;20995;-68
2022/05/15 11:43:33;;;;;;;2.20;2.00;;;;;;;23.82;49.48;99408.32;1759617;81;21562;-68
2022/05/15 11:46:10;;;;;;;2.08;1.95;;;;;;;23.85;49.42;99405.06;1759705;81;21076;-68
2022/05/15 11:48:50;;;;;;;1.92;1.82;;;;;;;23.88;49.39;99415.40;1759533;81;21009;-69
2022/05/15 11:51:25;;;;;;;2.22;1.90;;;;;;;23.91;49.32;99413.50;1778227;80;22267;-68
2022/05/15 11:54:07;;;;;;;2.12;1.92;;;;;;;23.94;49.28;99417.05;1788891;80;21014;-69
2022/05/15 11:56:43;;;;;;;;;;;;;;;23.97;49.21;99411.63;1793504;80;21020;-70
2022/05/15 11:59:23;;;;;;;2.20;2.00;;;;;;;24.03;49.17;99418.70;1791532;79;20203;-69
2022/05/15 12:01:53;;;;;;;2.20;2.00;;;;;;;24.07;49.19;99412.50;1790903;80;21081;-70
2022/05/15 12:04:37;;;;;;;2.00;1.80;;;;;;;24.19;49.16;99408.75;1790913;80;21100;-69
2022/05/15 12:07:16;;;;;;;2.25;1.85;;;;;;;24.26;49.19;99402.50;1790636;80;21001;-69
2022/05/15 12:09:49;;;;;;;2.40;2.20;;;;;;;24.36;49.12;99408.50;1790663;80;21041;-69
2022/05/15 12:12:31;;;;;;;2.30;2.10;;;;;;;24.41;49.08;99407.98;1790974;80;21029;-70
2022/05/15 12:15:13;;;;;;;2.00;1.90;;;;;;;24.54;49.13;99413.48;1790958;79;21053;-69
2022/05/15 12:17:46;;;;;;;2.15;2.00;;;;;;;24.62;49.08;99409.42;1834222;78;21135;-68